Time;durP1;ratioP1;P1;durP2;ratioP2;P2;SDS_P1;SDS_P2;PMS_P1;PMS_P2;Temp;Humidity;BMP_temperature;BMP_pressure;BME280_temperature;BME280_humidity;BME280_pressure;Samples;Min_cycle;Max_cycle;Signal;HPM_P1;HPM_P2
2021/06/03 00:01:06;;;;;;;13.55;7.07;;;14.30;99.80;;;;;;5118922;28;20369;-85
2021/06/03 00:03:35;;;;;;;12.27;7.22;;;14.30;99.90;;;;;;5119467;28;20070;-82
2021/06/03 00:06:05;;;;;;;14.80;7.75;;;14.10;99.90;;;;;;5119254;28;20016;-80
2021/06/03 00:08:31;;;;;;;13.38;8.40;;;14.00;99.90;;;;;;5120638;28;20052;-74
2021/06/03 00:11:10;;;;;;;14.35;9.20;;;13.80;99.90;;;;;;5120806;28;20485;-85
2021/06/03 00:13:38;;;;;;;13.48;7.95;;;13.70;99.90;;;;;;5118634;28;20004;-80
2021/06/03 00:16:11;;;;;;;15.32;8.20;;;13.80;99.90;;;;;;5119962;28;20055;-78
2021/06/03 00:18:39;;;;;;;12.10;7.32;;;13.80;99.90;;;;;;5121452;28;20031;-82
2021/06/03 00:21:06;;;;;;;10.70;7.30;;;13.90;99.90;;;;;;5122188;28;20098;-77
2021/06/03 00:23:33;;;;;;;10.45;6.80;;;14.00;99.90;;;;;;5122794;28;20031;-80
2021/06/03 00:25:59;;;;;;;10.23;6.70;;;13.80;99.90;;;;;;5118090;28;20582;-83
2021/06/03 00:28:25;;;;;;;10.27;6.88;;;13.90;99.90;;;;;;5121015;28;20369;-75
2021/06/03 00:30:51;;;;;;;11.88;6.63;;;14.00;99.90;;;;;;5121541;28;20047;-84
2021/06/03 00:33:18;;;;;;;17.15;7.32;;;14.00;99.90;;;;;;5120533;28;20020;-85
2021/06/03 00:35:44;;;;;;;17.65;6.88;;;14.00;99.90;;;;;;5123836;28;20023;-85
2021/06/03 00:38:10;;;;;;;8.00;6.25;;;14.10;99.90;;;;;;5121397;28;20035;-78
2021/06/03 00:40:37;;;;;;;9.70;6.45;;;14.00;99.90;;;;;;5120712;28;20111;-79
2021/06/03 00:43:04;;;;;;;9.25;6.50;;;13.90;99.90;;;;;;5119319;28;20077;-84
2021/06/03 00:45:34;;;;;;;12.40;6.47;;;13.90;99.90;;;;;;5124023;28;20030;-76
2021/06/03 00:48:00;;;;;;;11.40;6.50;;;13.60;99.90;;;;;;5122108;28;20016;-78
2021/06/03 00:50:38;;;;;;;8.68;6.30;;;13.60;99.90;;;;;;5122119;28;20031;-83
2021/06/03 00:53:07;;;;;;;9.77;6.47;;;13.80;99.90;;;;;;5121224;28;20102;-76
2021/06/03 00:55:35;;;;;;;11.75;6.03;;;13.80;99.90;;;;;;5123067;27;20018;-75
2021/06/03 00:58:02;;;;;;;15.88;7.03;;;13.90;99.90;;;;;;5122286;28;20023;-81
2021/06/03 01:00:28;;;;;;;12.55;6.35;;;13.80;99.90;;;;;;5121583;28;20084;-78
2021/06/03 01:02:54;;;;;;;9.63;6.28;;;13.80;99.90;;;;;;5121308;27;20106;-75
2021/06/03 01:05:20;;;;;;;11.07;6.00;;;13.80;99.90;;;;;;5121003;28;20027;-77
2021/06/03 01:07:48;;;;;;;9.70;6.13;;;13.90;99.90;;;;;;5122391;28;20015;-85
2021/06/03 01:10:34;;;;;;;8.38;5.88;;;14.20;99.90;;;;;;5121400;28;20166;-86
2021/06/03 01:13:34;;;;;;;9.05;6.00;;;14.10;99.90;;;;;;5121213;28;20092;-81
2021/06/03 01:16:03;;;;;;;8.75;5.70;;;14.00;99.90;;;;;;5119534;28;20023;-82
2021/06/03 01:18:33;;;;;;;11.75;6.95;;;14.00;99.90;;;;;;5119775;28;20034;-75
2021/06/03 01:21:01;;;;;;;8.50;6.40;;;14.10;99.90;;;;;;5120972;28;20260;-85
2021/06/03 01:23:38;;;;;;;11.05;6.57;;;13.90;99.90;;;;;;5122776;28;20016;-80
2021/06/03 01:26:05;;;;;;;13.15;7.18;;;14.00;99.90;;;;;;5121355;28;20482;-83
2021/06/03 01:28:33;;;;;;;10.70;6.80;;;14.10;99.90;;;;;;5122072;28;20016;-83
2021/06/03 01:31:00;;;;;;;8.85;6.75;;;14.10;99.90;;;;;;5121290;28;20093;-79
2021/06/03 01:33:30;;;;;;;10.40;7.05;;;14.20;99.90;;;;;;5121627;28;20415;-83
2021/06/03 01:35:58;;;;;;;12.63;7.65;;;14.20;99.90;;;;;;5118940;28;20024;-75
2021/06/03 01:38:28;;;;;;;16.58;7.68;;;14.00;99.90;;;;;;5121706;28;20173;-74
2021/06/03 01:40:56;;;;;;;11.85;7.43;;;14.00;99.90;;;;;;5122219;28;20153;-75
2021/06/03 01:43:23;;;;;;;12.25;7.43;;;14.10;99.90;;;;;;5121868;28;20023;-82
2021/06/03 01:45:50;;;;;;;12.93;6.82;;;14.20;99.90;;;;;;5120991;28;20045;-75
2021/06/03 01:48:22;;;;;;;14.10;7.20;;;14.30;99.90;;;;;;5120703;28;20019;-75
2021/06/03 01:50:50;;;;;;;9.15;6.38;;;14.30;99.90;;;;;;5122013;28;20024;-75
2021/06/03 01:53:22;;;;;;;9.68;6.13;;;14.00;99.90;;;;;;5119527;28;20016;-85
2021/06/03 01:55:49;;;;;;;8.23;6.00;;;13.70;99.90;;;;;;5122046;28;20111;-82
2021/06/03 01:58:15;;;;;;;10.18;6.55;;;13.80;99.90;;;;;;5121537;28;20449;-86
2021/06/03 02:00:42;;;;;;;9.85;6.68;;;14.00;99.90;;;;;;5122009;28;20024;-75
2021/06/03 02:03:08;;;;;;;10.93;6.43;;;14.10;99.90;;;;;;5118446;28;20375;-78
2021/06/03 02:05:35;;;;;;;14.55;6.90;;;14.10;99.90;;;;;;5120757;27;20026;-77
2021/06/03 02:08:01;;;;;;;13.27;7.00;;;14.10;99.90;;;;;;5121591;28;20028;-79
2021/06/03 02:10:27;;;;;;;11.23;7.72;;;14.20;99.90;;;;;;5119487;28;20020;-82
2021/06/03 02:13:11;;;;;;;12.50;7.20;;;14.20;99.90;;;;;;5121090;28;20020;-86
2021/06/03 02:15:46;;;;;;;12.93;7.60;;;14.20;99.90;;;;;;5121140;28;20466;-81
2021/06/03 02:18:15;;;;;;;16.70;8.15;;;14.20;99.90;;;;;;5122301;28;20014;-85
2021/06/03 02:20:46;;;;;;;13.38;7.93;;;14.30;99.90;;;;;;5121721;28;20019;-80
2021/06/03 02:23:15;;;;;;;11.82;7.10;;;14.20;99.90;;;;;;5121222;27;20153;-85
2021/06/03 02:25:41;;;;;;;20.75;8.25;;;14.40;99.90;;;;;;5118231;28;20054;-75
2021/06/03 02:28:08;;;;;;;13.10;7.68;;;14.40;99.90;;;;;;5118608;28;20076;-75
2021/06/03 02:30:34;;;;;;;17.05;8.25;;;14.30;99.90;;;;;;5119379;28;20520;-81
2021/06/03 02:33:02;;;;;;;13.98;7.40;;;14.40;99.90;;;;;;5119834;28;20065;-81
2021/06/03 02:35:30;;;;;;;16.40;8.38;;;14.50;99.90;;;;;;5118796;28;20030;-84
2021/06/03 02:37:56;;;;;;;11.50;7.65;;;14.40;99.90;;;;;;5120104;28;20055;-82
2021/06/03 02:40:27;;;;;;;15.77;7.68;;;14.40;99.90;;;;;;5118771;28;20089;-84
2021/06/03 02:42:54;;;;;;;13.57;8.30;;;14.30;99.90;;;;;;5120241;28;20029;-81
2021/06/03 02:45:23;;;;;;;15.65;8.75;;;14.30;99.90;;;;;;5117829;28;20032;-75
2021/06/03 02:47:50;;;;;;;14.63;8.05;;;14.20;99.90;;;;;;5120159;28;20034;-84
2021/06/03 02:50:17;;;;;;;17.15;8.40;;;14.00;99.90;;;;;;5118382;28;20027;-77
2021/06/03 02:52:43;;;;;;;13.93;8.10;;;14.00;99.90;;;;;;5119667;28;20360;-76
2021/06/03 02:55:13;;;;;;;14.82;7.78;;;14.00;99.90;;;;;;5119220;28;20066;-75
2021/06/03 02:57:40;;;;;;;13.35;7.82;;;14.00;99.90;;;;;;5120133;28;20118;-76
2021/06/03 03:00:25;;;;;;;14.23;8.38;;;14.00;99.90;;;;;;5118605;28;20064;-76
2021/06/03 03:02:51;;;;;;;13.18;7.47;;;14.10;99.90;;;;;;5119217;28;20078;-77
2021/06/03 03:05:17;;;;;;;14.88;7.82;;;14.10;99.90;;;;;;5118040;28;20026;-79
2021/06/03 03:07:44;;;;;;;14.25;7.95;;;14.10;99.90;;;;;;5119986;28;20071;-86
2021/06/03 03:10:14;;;;;;;12.90;8.65;;;14.10;99.90;;;;;;5121213;28;20020;-76
2021/06/03 03:12:40;;;;;;;13.77;7.72;;;14.10;99.90;;;;;;5121758;28;20422;-78
2021/06/03 03:15:08;;;;;;;15.50;8.02;;;14.00;99.90;;;;;;5122371;28;20007;-86
2021/06/03 03:17:34;;;;;;;19.55;10.23;;;13.80;99.90;;;;;;5121972;28;20057;-87
2021/06/03 03:20:01;;;;;;;16.27;10.82;;;13.70;99.90;;;;;;5121452;28;20420;-78
2021/06/03 03:22:27;;;;;;;14.10;8.93;;;13.70;99.90;;;;;;5118660;28;20045;-86
2021/06/03 03:24:53;;;;;;;14.90;8.85;;;13.70;99.90;;;;;;5118213;28;20012;-86
2021/06/03 03:27:19;;;;;;;12.60;8.45;;;13.70;99.90;;;;;;5117931;28;20397;-91
2021/06/03 03:29:45;;;;;;;14.18;8.00;;;13.90;99.90;;;;;;5114922;28;20023;-87
2021/06/03 03:32:11;;;;;;;13.23;8.55;;;13.90;99.90;;;;;;5119719;28;20016;-80
2021/06/03 03:34:37;;;;;;;16.00;8.18;;;13.90;99.90;;;;;;5116749;28;20027;-88
2021/06/03 03:37:03;;;;;;;13.07;7.97;;;13.90;99.90;;;;;;5120280;28;20024;-83
2021/06/03 03:39:29;;;;;;;16.45;8.57;;;13.80;99.90;;;;;;5120978;28;20027;-80
2021/06/03 03:41:55;;;;;;;16.98;8.57;;;13.80;99.90;;;;;;5118729;28;20020;-85
2021/06/03 03:44:21;;;;;;;14.85;8.45;;;13.80;99.90;;;;;;5119221;28;20015;-83
2021/06/03 03:46:47;;;;;;;16.90;7.68;;;13.70;99.90;;;;;;5120305;28;20019;-86
2021/06/03 03:49:13;;;;;;;19.02;8.15;;;13.60;99.90;;;;;;5119001;28;20016;-86
2021/06/03 03:51:39;;;;;;;13.18;8.23;;;13.60;99.90;;;;;;5118432;28;20028;-86
2021/06/03 03:54:05;;;;;;;10.27;8.15;;;13.50;99.90;;;;;;5120578;28;20019;-84
2021/06/03 03:56:32;;;;;;;16.95;8.00;;;13.60;99.90;;;;;;5118398;28;20110;-86
2021/06/03 03:58:58;;;;;;;13.73;7.95;;;13.50;99.90;;;;;;5120439;28;20028;-77
2021/06/03 04:01:28;;;;;;;18.50;8.15;;;13.70;99.90;;;;;;5117179;28;20107;-78
2021/06/03 04:03:54;;;;;;;13.82;8.00;;;13.70;99.90;;;;;;5119638;28;20004;-86
2021/06/03 04:06:20;;;;;;;17.83;8.60;;;13.70;99.90;;;;;;5121305;28;20061;-86
2021/06/03 04:08:46;;;;;;;11.52;7.97;;;13.60;99.90;;;;;;5120139;28;20024;-80
2021/06/03 04:11:12;;;;;;;14.70;7.70;;;13.70;99.90;;;;;;5119723;28;20016;-86
2021/06/03 04:13:39;;;;;;;16.48;7.32;;;13.80;99.90;;;;;;5119819;28;20000;-86
2021/06/03 04:16:05;;;;;;;12.75;7.57;;;13.90;99.90;;;;;;5120361;28;20051;-85
2021/06/03 04:18:31;;;;;;;13.02;8.07;;;14.00;99.90;;;;;;5122341;28;20024;-79
2021/06/03 04:20:57;;;;;;;15.80;7.80;;;14.10;99.90;;;;;;5121247;28;20035;-86
2021/06/03 04:23:24;;;;;;;13.80;7.97;;;14.20;99.90;;;;;;5121630;28;20023;-77
2021/06/03 04:25:50;;;;;;;15.43;9.05;;;14.10;99.90;;;;;;5118668;28;20070;-86
2021/06/03 04:28:16;;;;;;;16.88;8.73;;;14.10;99.90;;;;;;5118030;28;20076;-89
2021/06/03 04:30:42;;;;;;;15.43;8.15;;;14.30;99.90;;;;;;5120178;28;20016;-84
2021/06/03 04:33:09;;;;;;;13.75;9.85;;;14.40;99.90;;;;;;5119954;28;20019;-81
2021/06/03 04:35:37;;;;;;;14.20;9.02;;;14.40;99.90;;;;;;5118224;28;20041;-87
2021/06/03 04:38:06;;;;;;;13.65;8.82;;;14.40;99.90;;;;;;5118247;28;20034;-83
2021/06/03 04:40:32;;;;;;;12.93;9.25;;;14.50;99.90;;;;;;5117121;28;20020;-85
2021/06/03 04:42:59;;;;;;;12.13;8.85;;;14.50;99.90;;;;;;5120554;28;20008;-91
2021/06/03 04:45:26;;;;;;;15.38;8.95;;;14.60;99.90;;;;;;5116607;28;20019;-87
2021/06/03 04:47:52;;;;;;;14.85;8.75;;;14.60;99.90;;;;;;5115353;28;20046;-87
2021/06/03 04:50:20;;;;;;;14.38;8.80;;;14.80;99.90;;;;;;5116261;28;20027;-88
2021/06/03 04:52:47;;;;;;;16.98;9.38;;;14.80;99.90;;;;;;5119390;28;20047;-89
2021/06/03 04:55:17;;;;;;;14.85;8.98;;;14.90;99.90;;;;;;5119219;28;20024;-87
2021/06/03 04:57:44;;;;;;;12.25;9.13;;;14.70;99.90;;;;;;5117688;28;20488;-79
2021/06/03 05:00:17;;;;;;;14.68;9.30;;;14.70;99.90;;;;;;5122342;28;20023;-87
2021/06/03 05:02:43;;;;;;;13.95;8.70;;;14.80;99.90;;;;;;5121217;28;20008;-87
2021/06/03 05:05:11;;;;;;;15.63;9.25;;;15.00;99.90;;;;;;5120382;27;20069;-77
2021/06/03 05:07:37;;;;;;;16.77;9.48;;;15.00;99.90;;;;;;5120062;28;20026;-77
2021/06/03 05:10:05;;;;;;;11.25;8.38;;;15.10;99.90;;;;;;5118141;28;20072;-87
2021/06/03 05:12:31;;;;;;;16.35;8.50;;;15.30;99.90;;;;;;5119451;28;20023;-88
2021/06/03 05:14:57;;;;;;;15.90;9.90;;;15.40;99.90;;;;;;5121106;28;20099;-81
2021/06/03 05:17:23;;;;;;;14.60;8.73;;;15.30;99.90;;;;;;5122086;28;20062;-79
2021/06/03 05:19:49;;;;;;;13.27;9.20;;;15.50;99.90;;;;;;5122341;28;20032;-87
2021/06/03 05:22:15;;;;;;;11.60;8.65;;;15.40;99.90;;;;;;5122238;28;20006;-86
2021/06/03 05:24:41;;;;;;;15.60;9.02;;;15.50;99.90;;;;;;5118461;28;20062;-77
2021/06/03 05:27:07;;;;;;;13.77;9.85;;;15.50;99.90;;;;;;5120305;28;20016;-87
2021/06/03 05:29:34;;;;;;;14.50;9.15;;;15.60;99.90;;;;;;5120040;28;20019;-78
2021/06/03 05:32:00;;;;;;;12.48;7.97;;;15.60;99.90;;;;;;5121657;28;20437;-90
2021/06/03 05:34:26;;;;;;;11.20;8.00;;;15.80;99.90;;;;;;5125022;28;20027;-87
2021/06/03 05:36:53;;;;;;;15.20;8.63;;;15.90;99.90;;;;;;5120045;28;20019;-78
2021/06/03 05:39:20;;;;;;;10.68;7.82;;;15.90;99.90;;;;;;5119507;28;20026;-78
2021/06/03 05:41:47;;;;;;;13.98;7.43;;;15.90;99.90;;;;;;5118919;28;20026;-87
2021/06/03 05:44:14;;;;;;;12.13;7.57;;;16.10;99.90;;;;;;5119509;28;20010;-82
2021/06/03 05:46:40;;;;;;;11.23;7.65;;;16.30;99.80;;;;;;5121342;28;20018;-80
2021/06/03 05:49:08;;;;;;;12.00;8.40;;;16.50;99.40;;;;;;5117342;28;20068;-76
2021/06/03 05:51:35;;;;;;;9.80;7.00;;;16.70;99.80;;;;;;5116927;28;20027;-78
2021/06/03 05:54:00;;;;;;;10.88;7.03;;;16.60;98.10;;;;;;5116859;28;20020;-78
2021/06/03 05:56:27;;;;;;;13.82;7.68;;;16.90;98.00;;;;;;5118663;28;20024;-78
2021/06/03 05:58:53;;;;;;;10.57;7.00;;;17.00;98.30;;;;;;5118949;28;20035;-84
2021/06/03 06:01:20;;;;;;;11.60;7.70;;;17.00;98.00;;;;;;5121986;28;20488;-81
2021/06/03 06:03:58;;;;;;;8.88;7.25;;;17.20;98.20;;;;;;5121269;28;20020;-88
2021/06/03 06:06:31;;;;;;;13.52;7.80;;;17.30;97.80;;;;;;5119594;28;20095;-85
2021/06/03 06:09:05;;;;;;;7.93;6.35;;;17.60;97.90;;;;;;5123125;28;20028;-87
2021/06/03 06:11:37;;;;;;;10.18;6.47;;;17.90;96.90;;;;;;5121693;28;20532;-79
2021/06/03 06:14:04;;;;;;;11.68;6.57;;;18.10;96.50;;;;;;5119074;28;20119;-85
2021/06/03 06:16:31;;;;;;;8.63;6.03;;;18.10;96.10;;;;;;5121223;28;20091;-81
2021/06/03 06:18:57;;;;;;;9.35;6.03;;;18.20;95.70;;;;;;5120445;28;20461;-81
2021/06/03 06:21:26;;;;;;;8.82;5.80;;;18.50;95.60;;;;;;5116944;28;20489;-81
2021/06/03 06:23:53;;;;;;;7.50;5.45;;;18.50;94.60;;;;;;5121741;28;20016;-85
2021/06/03 06:26:20;;;;;;;11.00;6.05;;;18.50;95.00;;;;;;5117295;28;20070;-78
2021/06/03 06:28:50;;;;;;;8.30;5.65;;;18.70;94.90;;;;;;5118151;28;20020;-84
2021/06/03 06:31:16;;;;;;;9.65;5.07;;;18.90;95.20;;;;;;5119947;28;20020;-83
2021/06/03 06:33:43;;;;;;;10.52;5.75;;;18.80;94.10;;;;;;5120611;28;20499;-80
2021/06/03 06:36:10;;;;;;;8.88;5.28;;;19.00;94.30;;;;;;5119182;28;20015;-90
2021/06/03 06:38:37;;;;;;;8.85;5.30;;;19.00;93.60;;;;;;5117095;28;20051;-79
2021/06/03 06:41:04;;;;;;;8.43;5.75;;;19.20;93.50;;;;;;5117778;28;20035;-85
2021/06/03 06:43:30;;;;;;;11.25;4.70;;;19.30;93.40;;;;;;5115587;28;20027;-78
2021/06/03 06:45:56;;;;;;;11.00;4.95;;;19.30;91.70;;;;;;5115593;28;20072;-78
2021/06/03 06:48:22;;;;;;;10.45;5.18;;;19.50;92.40;;;;;;5115996;28;20023;-77
2021/06/03 06:50:50;;;;;;;9.23;4.80;;;19.70;92.90;;;;;;5118264;28;20016;-80
2021/06/03 06:53:16;;;;;;;10.02;5.00;;;19.70;91.60;;;;;;5118142;28;20020;-77
2021/06/03 06:55:43;;;;;;;10.68;4.68;;;19.80;91.70;;;;;;5120289;28;20454;-80
2021/06/03 06:58:09;;;;;;;9.18;5.15;;;19.80;90.70;;;;;;5118304;28;20020;-79
2021/06/03 07:00:38;;;;;;;6.68;4.15;;;20.00;90.30;;;;;;5117979;28;20046;-82
2021/06/03 07:03:09;;;;;;;8.02;4.10;;;20.20;88.60;;;;;;5119858;28;20011;-79
2021/06/03 07:05:38;;;;;;;10.82;3.75;;;20.10;86.60;;;;;;5119168;28;20028;-79
2021/06/03 07:08:05;;;;;;;8.63;3.88;;;20.30;86.50;;;;;;5123716;28;20008;-82
2021/06/03 07:10:31;;;;;;;9.55;3.50;;;20.50;87.10;;;;;;5120487;28;20020;-84
2021/06/03 07:12:57;;;;;;;6.53;3.95;;;20.80;84.60;;;;;;5122195;28;20473;-81
2021/06/03 07:15:23;;;;;;;8.00;3.65;;;21.20;86.20;;;;;;5113377;28;20065;-79
2021/06/03 07:17:49;;;;;;;8.00;3.25;;;21.20;79.40;;;;;;5112266;28;20085;-78
2021/06/03 07:20:18;;;;;;;7.07;3.28;;;21.40;83.50;;;;;;5112567;28;20081;-80
2021/06/03 07:22:47;;;;;;;7.00;3.40;;;21.40;79.30;;;;;;5112306;27;20046;-78
2021/06/03 07:25:14;;;;;;;3.85;2.90;;;21.60;79.20;;;;;;5119703;28;20047;-83
2021/06/03 07:27:41;;;;;;;10.63;3.53;;;21.70;77.60;;;;;;5120422;28;20055;-83
2021/06/03 07:30:10;;;;;;;6.32;2.92;;;21.80;77.80;;;;;;5121540;28;20106;-82
2021/06/03 07:32:36;;;;;;;9.23;3.45;;;21.90;75.50;;;;;;5120972;28;20028;-80
2021/06/03 07:35:09;;;;;;;7.93;3.60;;;21.90;76.90;;;;;;5123422;28;20094;-81
2021/06/03 07:37:37;;;;;;;7.37;3.33;;;22.10;78.90;;;;;;5122493;28;20015;-90
2021/06/03 07:40:05;;;;;;;7.82;3.00;;;22.10;74.80;;;;;;5120715;28;20067;-78
2021/06/03 07:42:31;;;;;;;5.88;3.25;;;22.40;77.00;;;;;;5120690;28;20024;-78
2021/06/03 07:44:56;;;;;;;5.78;3.00;;;22.50;74.20;;;;;;5119351;28;20016;-81
2021/06/03 07:47:23;;;;;;;3.90;2.50;;;22.70;74.00;;;;;;5119833;28;20050;-89
2021/06/03 07:49:48;;;;;;;4.18;2.53;;;22.50;68.90;;;;;;5120989;28;20025;-81
2021/06/03 07:52:14;;;;;;;6.22;2.72;;;22.90;69.90;;;;;;5117025;28;20022;-91
2021/06/03 07:54:40;;;;;;;6.38;2.60;;;23.10;67.70;;;;;;5118222;28;20065;-82
2021/06/03 07:57:07;;;;;;;7.03;2.70;;;22.90;68.00;;;;;;5120037;28;20110;-82
2021/06/03 07:59:33;;;;;;;5.15;2.75;;;23.20;70.20;;;;;;5121250;28;20058;-86
2021/06/03 08:02:00;;;;;;;4.88;2.50;;;23.50;68.00;;;;;;5120230;28;20104;-86
2021/06/03 08:04:26;;;;;;;5.80;2.58;;;23.60;69.10;;;;;;5119817;28;20016;-85
2021/06/03 08:06:55;;;;;;;4.38;2.50;;;23.60;68.20;;;;;;5116856;28;20015;-83
2021/06/03 08:09:21;;;;;;;5.53;2.72;;;23.50;65.60;;;;;;5120054;28;20027;-82
2021/06/03 08:11:48;;;;;;;5.97;3.08;;;23.50;69.90;;;;;;5118673;28;20468;-81
2021/06/03 08:14:14;;;;;;;5.78;2.60;;;23.90;66.20;;;;;;5120725;28;20024;-79
2021/06/03 08:16:41;;;;;;;5.93;2.53;;;24.10;64.70;;;;;;5118925;28;20028;-84
2021/06/03 08:19:08;;;;;;;6.50;2.60;;;24.00;65.00;;;;;;5119357;28;20031;-82
2021/06/03 08:21:34;;;;;;;4.93;2.60;;;23.80;63.10;;;;;;5120148;28;20085;-81
2021/06/03 08:24:01;;;;;;;5.85;2.78;;;23.90;64.80;;;;;;5120524;28;20373;-77
2021/06/03 08:26:28;;;;;;;5.43;2.72;;;23.90;63.70;;;;;;5121633;28;20043;-76
2021/06/03 08:28:57;;;;;;;9.27;2.60;;;23.90;64.90;;;;;;5122252;28;19999;-77
2021/06/03 08:31:25;;;;;;;3.97;2.40;;;24.30;66.20;;;;;;5121279;28;20019;-78
2021/06/03 08:33:51;;;;;;;5.63;2.63;;;24.20;66.20;;;;;;5120760;28;20019;-81
2021/06/03 08:36:17;;;;;;;4.25;2.50;;;24.40;63.20;;;;;;5120514;28;20022;-82
2021/06/03 08:38:44;;;;;;;4.40;2.55;;;24.50;63.50;;;;;;5124986;27;20059;-86
2021/06/03 08:41:10;;;;;;;5.18;2.45;;;25.00;63.80;;;;;;5121959;28;20032;-78
2021/06/03 08:43:36;;;;;;;5.40;2.53;;;25.10;61.30;;;;;;5121357;28;20157;-83
2021/06/03 08:46:03;;;;;;;6.72;3.08;;;24.80;60.20;;;;;;5121178;28;20039;-76
2021/06/03 08:48:30;;;;;;;4.72;2.40;;;24.60;61.80;;;;;;5121608;28;20019;-84
2021/06/03 08:51:00;;;;;;;3.40;2.53;;;24.80;63.70;;;;;;5122155;28;20027;-81
2021/06/03 08:53:27;;;;;;;6.72;2.88;;;25.00;63.90;;;;;;5123952;28;20023;-83
2021/06/03 08:58:38;;;;;;;3.75;2.50;;;25.00;59.60;;;;;;5126168;28;20019;-84
2021/06/03 09:01:05;;;;;;;6.28;2.40;;;25.50;65.30;;;;;;5123492;28;20488;-84
2021/06/03 09:03:34;;;;;;;6.22;2.55;;;25.90;61.60;;;;;;5122776;28;20505;-84
2021/06/03 09:06:00;;;;;;;6.40;2.50;;;26.10;62.10;;;;;;5121835;28;20087;-78
2021/06/03 09:08:34;;;;;;;5.00;2.85;;;26.50;61.60;;;;;;5122361;27;20413;-86
2021/06/03 09:11:09;;;;;;;8.10;2.92;;;26.00;55.30;;;;;;5120153;28;20023;-87
2021/06/03 09:13:38;;;;;;;5.65;3.00;;;26.00;58.60;;;;;;5124062;28;20365;-82
2021/06/03 09:16:10;;;;;;;5.10;2.80;;;25.30;58.20;;;;;;5121123;28;20010;-85
2021/06/03 09:18:41;;;;;;;6.80;3.33;;;25.10;58.40;;;;;;5123995;28;20020;-87
2021/06/03 09:21:20;;;;;;;4.80;2.78;;;25.50;64.30;;;;;;5120971;28;20030;-84
2021/06/03 09:24:06;;;;;;;6.57;2.70;;;25.20;57.60;;;;;;5120123;28;20103;-80
2021/06/03 09:26:45;;;;;;;6.45;2.45;;;25.10;60.80;;;;;;5118685;28;20069;-81
2021/06/03 09:29:13;;;;;;;6.07;3.20;;;;;;;;;;5121881;28;20030;-81
2021/06/03 09:31:39;;;;;;;3.08;2.40;;;25.80;61.60;;;;;;5122557;28;20049;-81
2021/06/03 09:34:13;;;;;;;4.88;2.50;;;26.10;60.30;;;;;;5117523;28;20051;-84
2021/06/03 09:36:51;;;;;;;7.10;2.58;;;25.80;56.60;;;;;;5120072;28;20030;-78
2021/06/03 09:39:52;;;;;;;7.30;2.80;;;25.80;58.40;;;;;;5121111;28;20040;-78
2021/06/03 09:42:20;;;;;;;5.82;2.50;;;25.90;59.70;;;;;;5075566;28;20482;-82
2021/06/03 09:44:49;;;;;;;5.13;2.40;;;26.00;57.60;;;;;;5077277;28;20039;-77
2021/06/03 09:47:20;;;;;;;3.58;2.30;;;26.50;56.70;;;;;;5076129;28;20029;-78
2021/06/03 09:49:53;;;;;;;4.75;2.47;;;27.10;58.30;;;;;;5077052;28;20028;-77
2021/06/03 09:52:21;;;;;;;7.28;2.60;;;27.50;55.90;;;;;;5078079;28;20012;-81
2021/06/03 09:54:51;;;;;;;6.55;2.58;;;26.90;56.80;;;;;;5081808;28;20379;-81
2021/06/03 09:57:18;;;;;;;6.03;2.60;;;26.20;57.80;;;;;;5083109;28;20048;-83
2021/06/03 10:00:10;;;;;;;5.95;2.40;;;25.70;59.40;;;;;;5065161;28;20016;-85
2021/06/03 10:02:36;;;;;;;7.00;2.80;;;24.90;58.90;;;;;;5082996;28;20020;-84
2021/06/03 10:05:11;;;;;;;6.68;2.78;;;24.90;60.80;;;;;;5083082;28;20080;-76
2021/06/03 10:07:37;;;;;;;3.72;2.63;;;25.10;61.10;;;;;;5082754;28;20087;-78
2021/06/03 10:10:12;;;;;;;6.32;2.50;;;25.80;61.80;;;;;;5076673;28;20016;-76
2021/06/03 10:12:42;;;;;;;4.43;2.85;;;26.20;58.80;;;;;;5054327;28;20005;-82
2021/06/03 10:15:11;;;;;;;6.05;2.83;;;26.00;56.10;;;;;;5062953;28;20022;-81
2021/06/03 10:17:48;;;;;;;6.47;3.20;;;25.50;55.60;;;;;;5121163;28;20028;-79
2021/06/03 10:20:23;;;;;;;7.38;4.25;;;25.30;58.30;;;;;;5115406;28;20534;-81
2021/06/03 10:22:52;;;;;;;4.32;2.60;;;25.40;58.40;;;;;;5116585;27;20095;-84
2021/06/03 10:25:29;;;;;;;4.88;2.65;;;25.10;54.60;;;;;;5115299;28;20554;-81
2021/06/03 10:28:06;;;;;;;4.72;2.33;;;26.00;60.70;;;;;;5116015;28;20526;-78
2021/06/03 10:30:41;;;;;;;5.05;2.60;;;26.50;56.50;;;;;;5116358;28;20051;-78
2021/06/03 10:33:28;;;;;;;5.32;2.35;;;26.00;56.30;;;;;;5119130;28;20024;-78
2021/06/03 10:35:57;;;;;;;3.42;2.42;;;25.50;53.90;;;;;;5119990;28;20044;-76
2021/06/03 10:38:23;;;;;;;3.95;2.30;;;25.70;57.60;;;;;;5117407;28;20602;-78
2021/06/03 10:40:58;;;;;;;3.05;2.28;;;25.50;58.30;;;;;;5123056;28;20647;-82
2021/06/03 10:43:27;;;;;;;3.67;2.20;;;25.40;57.80;;;;;;5122642;28;20024;-79
2021/06/03 10:45:53;;;;;;;4.93;2.20;;;25.30;59.00;;;;;;5121744;28;20003;-80
2021/06/03 10:48:20;;;;;;;4.60;2.90;;;25.20;57.80;;;;;;5123883;28;20034;-81
2021/06/03 10:50:49;;;;;;;3.92;2.47;;;25.00;58.10;;;;;;5120481;28;20023;-81
2021/06/03 10:53:21;;;;;;;6.75;2.70;;;24.90;58.90;;;;;;5119710;28;20019;-82
2021/06/03 10:55:52;;;;;;;3.90;2.38;;;25.00;59.00;;;;;;5122974;28;20529;-78
2021/06/03 10:58:31;;;;;;;5.97;2.88;;;25.00;57.50;;;;;;5118337;28;20027;-77
2021/06/03 11:01:14;;;;;;;6.50;2.80;;;25.00;58.80;;;;;;5116933;28;20033;-77
2021/06/03 11:03:49;;;;;;;9.80;5.53;;;24.80;59.20;;;;;;5115460;28;20038;-77
2021/06/03 11:06:18;;;;;;;19.25;7.88;;;24.70;58.90;;;;;;5115448;27;20019;-77
2021/06/03 11:09:06;;;;;;;9.38;6.80;;;24.70;60.50;;;;;;5119415;28;20015;-78
2021/06/03 11:11:37;;;;;;;11.82;6.15;;;24.40;58.10;;;;;;5115034;28;20037;-76
2021/06/03 11:14:10;;;;;;;7.05;3.90;;;24.30;56.40;;;;;;5117913;28;20019;-77
2021/06/03 11:16:36;;;;;;;6.28;2.80;;;24.40;58.70;;;;;;5118390;28;20102;-83
2021/06/03 11:19:02;;;;;;;5.65;3.55;;;24.30;58.70;;;;;;5117560;28;20404;-77
2021/06/03 11:21:35;;;;;;;124.57;39.42;;;24.40;59.20;;;;;;5113280;28;20478;-84
2021/06/03 11:24:33;;;;;;;8.68;3.83;;;24.40;59.70;;;;;;5114647;28;20483;-78
2021/06/03 11:27:00;;;;;;;15.95;6.35;;;24.50;60.80;;;;;;5097803;28;20046;-77
2021/06/03 11:29:32;;;;;;;6.18;2.83;;;24.40;60.30;;;;;;5115156;28;20047;-81
2021/06/03 11:32:04;;;;;;;27.08;10.10;;;24.50;61.20;;;;;;5120397;28;20067;-81
2021/06/03 11:34:40;;;;;;;9.77;4.40;;;;;;;;;;5119178;28;20028;-80
2021/06/03 11:37:09;;;;;;;5.25;2.90;;;;;;;;;;5121428;28;20397;-79
2021/06/03 11:39:43;;;;;;;3.65;2.90;;;25.50;58.50;;;;;;5120720;28;20483;-80
2021/06/03 11:42:09;;;;;;;;;;;;;;;;;;5120689;28;20378;-80
2021/06/03 11:45:04;;;;;;;5.72;3.17;;;25.90;55.70;;;;;;5118845;28;19904;-80
2021/06/03 11:47:37;;;;;;;4.95;2.88;;;26.50;58.70;;;;;;5120086;28;20035;-79
2021/06/03 11:50:14;;;;;;;5.83;2.83;;;27.30;58.00;;;;;;5126501;28;20026;-80
2021/06/03 11:53:01;;;;;;;6.43;3.63;;;27.20;53.90;;;;;;5123735;28;20508;-80
2021/06/03 11:55:28;;;;;;;5.90;2.85;;;27.80;54.70;;;;;;5107441;28;20441;-79
2021/06/03 11:58:20;;;;;;;4.88;2.67;;;28.10;53.60;;;;;;5115026;28;20100;-79
2021/06/03 12:00:55;;;;;;;6.95;2.92;;;27.80;54.20;;;;;;5117916;28;20389;-78
2021/06/03 12:03:39;;;;;;;6.70;2.60;;;27.50;54.90;;;;;;5120346;28;20028;-77
2021/06/03 12:06:13;;;;;;;6.73;2.87;;;27.10;56.10;;;;;;5123731;28;20023;-81
2021/06/03 12:08:42;;;;;;;5.85;2.78;;;26.90;55.90;;;;;;5122602;28;20507;-78
2021/06/03 12:11:32;;;;;;;6.30;3.70;;;27.00;54.50;;;;;;5123354;28;20027;-76
2021/06/03 12:14:08;;;;;;;5.05;2.80;;;27.80;55.70;;;;;;5123786;28;20053;-77
2021/06/03 12:16:39;;;;;;;3.78;2.63;;;28.50;57.30;;;;;;5122144;28;20030;-80
2021/06/03 12:19:21;;;;;;;6.32;2.70;;;28.70;55.00;;;;;;5121419;28;20022;-80
2021/06/03 12:21:52;;;;;;;5.85;2.40;;;28.20;55.70;;;;;;5127327;28;20023;-81
2021/06/03 12:24:30;;;;;;;3.92;2.55;;;27.50;54.20;;;;;;5121952;28;20023;-77
2021/06/03 12:26:56;;;;;;;5.22;2.45;;;27.20;55.20;;;;;;5120791;27;20032;-80
2021/06/03 12:29:28;;;;;;;5.28;2.53;;;26.90;56.10;;;;;;5121616;28;20047;-82
2021/06/03 12:31:54;;;;;;;6.00;2.60;;;26.60;55.80;;;;;;5123573;28;20079;-79
2021/06/03 12:34:22;;;;;;;4.90;2.78;;;26.40;56.00;;;;;;5123405;28;20024;-77
2021/06/03 12:36:49;;;;;;;4.40;2.50;;;26.10;56.00;;;;;;5120326;28;20026;-85
2021/06/03 12:39:16;;;;;;;7.15;2.58;;;25.80;56.20;;;;;;5119445;28;20019;-76
2021/06/03 12:41:43;;;;;;;4.93;2.60;;;25.60;57.10;;;;;;5119781;28;20027;-82
2021/06/03 12:44:18;;;;;;;9.32;2.83;;;25.50;57.40;;;;;;5118532;28;20024;-76
2021/06/03 12:46:53;;;;;;;3.70;2.42;;;25.50;58.20;;;;;;5119600;28;20012;-84
2021/06/03 12:49:27;;;;;;;5.88;2.42;;;26.00;58.50;;;;;;5119029;28;20034;-79
2021/06/03 12:51:53;;;;;;;6.30;2.65;;;26.80;57.60;;;;;;5121319;28;20477;-84
2021/06/03 12:54:44;;;;;;;5.40;2.28;;;27.50;56.40;;;;;;5117647;28;20038;-84
2021/06/03 12:57:15;;;;;;;7.43;2.55;;;27.70;53.50;;;;;;5120901;27;20429;-83